Terminal Aerodrome Forecast
Issued by NWS Spokane, WA

Home | Current Version | Previous Version | Text Only | Print | Product List | Glossary On
Versions: 1 2 3 4 5 6 7 8 9 10 11 12 13 14 15 16 17 18 19 20 21 22 23
000
FTUS46 KOTX 251122
TAFGEG
TAF
KGEG 251122Z 2512/2612 17006KT P6SM SCT070 BKN120 BKN200
     FM251300 17009KT P6SM SCT040 BKN050 OVC100
     FM251700 21009KT P6SM -SHRA SCT030 BKN040 OVC100
     FM260200 34005KT P6SM SCT050 BKN100 OVC120=

USA.gov is the U.S. government's official web portal to all federal, state and local government web resources and services.